createdAt,value
2023-04-08T00:00:02.018Z,4.90
2023-04-08T00:02:34.979Z,4.95
2023-04-08T00:07:42.823Z,5.32
2023-04-08T00:10:15.627Z,5.22
2023-04-08T00:12:55.299Z,5.35
2023-04-08T00:15:28.238Z,6.63
2023-04-08T00:20:35.556Z,7.40
2023-04-08T00:23:08.287Z,7.18
2023-04-08T00:25:41.219Z,6.68
2023-04-08T00:28:15.379Z,7.10
2023-04-08T00:30:48.616Z,6.65
2023-04-08T00:35:57.158Z,7.57
2023-04-08T00:38:30.939Z,7.68
2023-04-08T00:41:03.711Z,6.85
2023-04-08T00:43:36.413Z,8.23
2023-04-08T00:46:10.853Z,8.13
2023-04-08T00:48:43.752Z,10.48
2023-04-08T00:51:17.958Z,7.43
2023-04-08T00:53:50.783Z,8.13
2023-04-08T00:56:23.983Z,8.95
2023-04-08T00:58:56.847Z,8.90
2023-04-08T01:04:14.569Z,10.27
2023-04-08T01:06:56.004Z,11.00
2023-04-08T01:09:33.356Z,9.82
2023-04-08T01:12:09.244Z,10.25
2023-04-08T01:14:46.036Z,10.40
2023-04-08T01:17:20.629Z,10.57
2023-04-08T01:19:55.792Z,11.55
2023-04-08T01:22:38.330Z,11.20
2023-04-08T01:25:17.678Z,12.10
2023-04-08T01:27:56.489Z,11.75
2023-04-08T01:30:31.441Z,11.73
2023-04-08T01:33:06.705Z,12.95
2023-04-08T01:35:39.770Z,12.90
2023-04-08T01:38:17.984Z,13.25
2023-04-08T01:40:52.093Z,13.15
2023-04-08T01:43:28.394Z,13.77
2023-04-08T01:46:02.286Z,13.90
2023-04-08T01:48:36.636Z,14.60
2023-04-08T01:51:10.841Z,13.95
2023-04-08T01:53:44.246Z,15.18
2023-04-08T01:56:17.947Z,13.40
2023-04-08T01:58:56.184Z,14.95
2023-04-08T02:01:31.646Z,14.00
2023-04-08T02:04:05.299Z,14.90
2023-04-08T02:06:39.112Z,16.20
2023-04-08T02:09:12.323Z,15.93
2023-04-08T02:11:45.059Z,16.23
2023-04-08T02:14:20.739Z,15.05
2023-04-08T02:16:55.902Z,13.57
2023-04-08T02:19:32.220Z,14.40
2023-04-08T02:22:10.779Z,14.05
2023-04-08T02:24:44.713Z,14.15
2023-04-08T02:27:19.783Z,12.35
2023-04-08T02:29:58.154Z,12.02
2023-04-08T02:32:33.939Z,13.63
2023-04-08T02:35:08.015Z,13.60
2023-04-08T02:37:41.180Z,13.85
2023-04-08T02:40:27.545Z,13.77
2023-04-08T02:43:01.525Z,13.32
2023-04-08T02:45:40.213Z,13.38
2023-04-08T02:48:13.182Z,12.85
2023-04-08T02:50:46.156Z,12.35
2023-04-08T02:55:53.188Z,12.65
2023-04-08T02:58:26.348Z,13.02
2023-04-08T03:01:00.477Z,13.32
2023-04-08T03:03:33.564Z,15.48
2023-04-08T03:06:06.681Z,15.73
2023-04-08T03:08:39.557Z,12.63
2023-04-08T03:11:12.751Z,15.25
2023-04-08T03:13:46.777Z,13.93
2023-04-08T03:16:21.164Z,13.90
2023-04-08T03:18:54.128Z,12.82
2023-04-08T03:23:59.840Z,13.25
2023-04-08T03:26:32.546Z,13.40
2023-04-08T03:29:06.884Z,13.75
2023-04-08T03:31:41.675Z,14.90
2023-04-08T03:34:14.903Z,12.75
2023-04-08T03:36:47.783Z,12.05
2023-04-08T03:39:20.767Z,12.02
2023-04-08T03:41:53.829Z,12.45
2023-04-08T03:44:26.648Z,11.95
2023-04-08T03:49:33.780Z,12.45
2023-04-08T03:52:07.279Z,11.90
2023-04-08T03:54:40.150Z,11.18
2023-04-08T03:57:13.094Z,11.68
2023-04-08T03:59:46.352Z,12.07
2023-04-08T04:02:20.824Z,10.63
2023-04-08T04:04:53.676Z,11.05
2023-04-08T04:07:26.662Z,10.95
2023-04-08T04:12:32.204Z,10.63
2023-04-08T04:15:08.489Z,11.23
2023-04-08T04:17:43.395Z,10.82
2023-04-08T04:20:19.169Z,9.70
2023-04-08T04:22:54.234Z,11.30
2023-04-08T04:25:26.910Z,11.38
2023-04-08T04:28:00.080Z,10.13
2023-04-08T04:30:32.822Z,11.52
2023-04-08T04:33:07.342Z,9.38
2023-04-08T04:35:40.997Z,11.27
2023-04-08T04:38:13.880Z,11.40
2023-04-08T04:43:20.144Z,10.30
2023-04-08T04:45:52.835Z,10.48
2023-04-08T04:48:27.245Z,10.82
2023-04-08T04:51:01.401Z,11.27
2023-04-08T04:53:34.624Z,10.90
2023-04-08T04:56:07.861Z,14.43
2023-04-08T04:58:40.676Z,11.68
2023-04-08T05:01:13.471Z,11.65
2023-04-08T05:03:48.132Z,10.90
2023-04-08T05:06:21.219Z,10.07
2023-04-08T05:08:54.745Z,10.50
2023-04-08T05:11:27.504Z,11.13
2023-04-08T05:14:00.331Z,11.57
2023-04-08T05:16:33.533Z,12.90
2023-04-08T05:19:10.200Z,12.55
2023-04-08T05:21:43.019Z,13.52
2023-04-08T05:24:16.234Z,13.52
2023-04-08T05:26:53.533Z,11.77
2023-04-08T05:29:26.581Z,12.95
2023-04-08T05:32:00.038Z,13.60
2023-04-08T05:34:34.544Z,12.35
2023-04-08T05:37:07.598Z,13.38
2023-04-08T05:39:40.443Z,12.57
2023-04-08T05:42:13.917Z,12.77
2023-04-08T05:44:46.890Z,15.90
2023-04-08T05:49:56.472Z,14.23
2023-04-08T05:52:29.246Z,15.13
2023-04-08T05:57:34.777Z,13.95
2023-04-08T06:00:09.640Z,13.82
2023-04-08T06:02:43.137Z,13.13
2023-04-08T06:07:50.503Z,16.67
2023-04-08T06:10:23.461Z,16.35
2023-04-08T06:12:56.795Z,17.52
2023-04-08T06:15:29.860Z,19.15
2023-04-08T06:18:03.130Z,16.65
2023-04-08T06:20:38.189Z,17.63
2023-04-08T06:23:11.035Z,17.08
2023-04-08T06:28:17.560Z,17.27
2023-04-08T06:30:50.573Z,19.40
2023-04-08T06:33:23.643Z,17.50
2023-04-08T06:36:04.865Z,18.73
2023-04-08T06:38:37.875Z,17.55
2023-04-08T06:41:11.013Z,16.50
2023-04-08T06:43:43.863Z,18.00
2023-04-08T06:46:16.996Z,19.50
2023-04-08T06:48:50.460Z,18.83
2023-04-08T06:51:28.020Z,18.90
2023-04-08T06:54:00.765Z,19.60
2023-04-08T06:56:33.628Z,20.15
2023-04-08T06:59:06.926Z,19.38
2023-04-08T07:01:39.709Z,19.27
2023-04-08T07:04:13.069Z,19.45
2023-04-08T07:06:47.303Z,21.52
2023-04-08T07:09:23.439Z,22.15
2023-04-08T07:11:57.738Z,19.85
2023-04-08T07:14:30.932Z,21.90
2023-04-08T07:17:03.719Z,20.05
2023-04-08T07:19:37.510Z,21.27
2023-04-08T07:22:11.607Z,23.13
2023-04-08T07:24:49.568Z,20.42
2023-04-08T07:27:22.662Z,20.20
2023-04-08T07:29:55.987Z,21.83
2023-04-08T07:32:29.096Z,22.13
2023-04-08T07:35:02.262Z,22.98
2023-04-08T07:37:36.743Z,24.35
2023-04-08T07:40:10.949Z,22.60
2023-04-08T07:42:43.805Z,20.80
2023-04-08T07:47:49.931Z,20.00
2023-04-08T07:55:34.847Z,21.73
2023-04-08T07:58:07.818Z,21.55
2023-04-08T08:03:14.111Z,22.90
2023-04-08T08:05:47.290Z,19.10
2023-04-08T08:08:21.631Z,21.40
2023-04-08T08:10:54.538Z,22.15
2023-04-08T08:16:00.870Z,23.88
2023-04-08T08:18:36.026Z,21.67
2023-04-08T08:21:09.239Z,22.80
2023-04-08T08:23:43.898Z,24.25
2023-04-08T08:26:17.206Z,23.40
2023-04-08T08:28:50.512Z,22.75
2023-04-08T08:31:26.063Z,21.85
2023-04-08T08:33:58.957Z,24.08
2023-04-08T08:39:08.472Z,25.73
2023-04-08T08:41:42.311Z,23.48
2023-04-08T08:44:15.835Z,25.60
2023-04-08T08:46:49.588Z,25.58
2023-04-08T08:49:23.847Z,23.90
2023-04-08T08:51:57.238Z,26.15
2023-04-08T08:54:31.871Z,24.92
2023-04-08T08:57:05.334Z,24.75
2023-04-08T08:59:38.489Z,26.35
2023-04-08T09:04:59.719Z,25.85
2023-04-08T09:07:36.881Z,25.92
2023-04-08T09:10:11.896Z,24.27
2023-04-08T09:12:56.766Z,24.55
2023-04-08T09:15:30.386Z,24.15
2023-04-08T09:18:03.929Z,24.50
2023-04-08T09:20:37.257Z,24.33
2023-04-08T09:23:09.987Z,23.45
2023-04-08T09:25:44.531Z,25.42
2023-04-08T09:28:21.586Z,26.95
2023-04-08T09:30:54.786Z,26.90
2023-04-08T09:33:32.382Z,24.55
2023-04-08T09:36:05.480Z,24.73
2023-04-08T09:38:38.393Z,24.10
2023-04-08T09:43:50.865Z,27.10
2023-04-08T09:46:27.842Z,24.83
2023-04-08T09:49:07.353Z,23.55
2023-04-08T09:51:44.699Z,23.83
2023-04-08T09:54:23.140Z,25.13
2023-04-08T09:57:06.466Z,25.92
2023-04-08T09:59:45.872Z,24.42
2023-04-08T10:02:23.783Z,22.58
2023-04-08T10:04:59.014Z,23.30
2023-04-08T10:07:31.897Z,23.15
2023-04-08T10:10:05.668Z,25.52
2023-04-08T10:12:40.708Z,25.05
2023-04-08T10:15:29.904Z,24.52
2023-04-08T10:18:31.402Z,25.65
2023-04-08T10:21:04.564Z,23.30
2023-04-08T10:23:59.580Z,21.85
2023-04-08T10:26:34.858Z,23.70
2023-04-08T10:29:34.831Z,21.67
2023-04-08T10:32:07.810Z,21.80
2023-04-08T10:34:53.921Z,21.08
2023-04-08T10:37:26.658Z,21.85
2023-04-08T10:39:59.593Z,21.33
2023-04-08T10:45:07.368Z,21.60
2023-04-08T10:47:40.649Z,20.92
2023-04-08T10:50:15.605Z,23.35
2023-04-08T10:52:48.874Z,22.48
2023-04-08T10:55:25.083Z,22.77
2023-04-08T10:58:07.864Z,24.83
2023-04-08T11:00:42.191Z,26.30
2023-04-08T11:03:15.810Z,25.08
2023-04-08T11:05:51.855Z,25.48
2023-04-08T11:08:29.105Z,24.88
2023-04-08T11:11:02.751Z,23.30
2023-04-08T11:13:36.880Z,24.85
2023-04-08T11:16:18.294Z,22.67
2023-04-08T11:18:52.446Z,23.30
2023-04-08T11:21:29.090Z,20.02
2023-04-08T11:24:02.029Z,22.40
2023-04-08T11:26:35.588Z,18.92
2023-04-08T11:29:12.724Z,17.80
2023-04-08T11:31:49.605Z,16.25
2023-04-08T11:34:26.186Z,15.20
2023-04-08T11:36:59.552Z,14.38
2023-04-08T11:39:32.349Z,14.98
2023-04-08T11:44:37.840Z,14.88
2023-04-08T11:47:12.012Z,17.15
2023-04-08T11:49:45.635Z,14.50
2023-04-08T11:52:18.450Z,15.85
2023-04-08T11:54:51.432Z,15.32
2023-04-08T12:00:06.930Z,15.43
2023-04-08T12:02:44.944Z,14.10
2023-04-08T12:05:18.088Z,16.55
2023-04-08T12:07:51.098Z,17.00
2023-04-08T12:12:58.002Z,15.10
2023-04-08T12:18:05.890Z,15.50
2023-04-08T12:20:38.688Z,13.88
2023-04-08T12:25:44.751Z,12.57
2023-04-08T12:28:17.714Z,11.85
2023-04-08T12:30:50.573Z,13.38
2023-04-08T12:33:24.901Z,12.93
2023-04-08T12:35:59.132Z,13.93
2023-04-08T12:38:33.788Z,13.07
2023-04-08T12:41:07.603Z,11.15
2023-04-08T12:43:40.618Z,13.60
2023-04-08T12:46:13.548Z,12.27
2023-04-08T12:51:36.756Z,13.43
2023-04-08T12:54:09.956Z,11.25
2023-04-08T12:56:43.372Z,13.57
2023-04-08T12:59:16.382Z,11.45
2023-04-08T13:04:23.271Z,10.77
2023-04-08T13:06:56.994Z,10.95
2023-04-08T13:09:30.798Z,11.05
2023-04-08T13:12:03.845Z,10.88
2023-04-08T13:17:10.576Z,10.95
2023-04-08T13:19:44.811Z,11.38
2023-04-08T13:22:17.929Z,11.25
2023-04-08T13:24:51.395Z,10.15
2023-04-08T13:27:24.326Z,9.73
2023-04-08T13:32:30.334Z,9.85
2023-04-08T13:35:04.915Z,10.90
2023-04-08T13:37:37.910Z,10.10
2023-04-08T13:40:12.240Z,8.93
2023-04-08T13:42:44.927Z,10.18
2023-04-08T13:45:17.839Z,10.00
2023-04-08T13:50:25.109Z,9.57
2023-04-08T13:52:58.134Z,10.68
2023-04-08T13:55:31.151Z,10.13
2023-04-08T13:58:08.786Z,9.43
2023-04-08T14:00:47.032Z,8.88
2023-04-08T14:05:56.280Z,10.38
2023-04-08T14:08:29.056Z,12.27
2023-04-08T14:11:01.944Z,11.57
2023-04-08T14:16:07.733Z,10.32
2023-04-08T14:18:40.872Z,10.18
2023-04-08T14:21:16.218Z,10.25
2023-04-08T14:23:49.009Z,11.13
2023-04-08T14:28:55.168Z,10.98
2023-04-08T14:31:28.318Z,11.20
2023-04-08T14:34:01.980Z,10.48
2023-04-08T14:36:36.442Z,10.80
2023-04-08T14:39:09.596Z,8.73
2023-04-08T14:41:42.338Z,12.88
2023-04-08T14:44:15.296Z,11.10
2023-04-08T14:46:48.267Z,11.65
2023-04-08T14:49:21.842Z,10.55
2023-04-08T14:51:56.993Z,9.93
2023-04-08T14:54:29.923Z,12.35
2023-04-08T14:57:03.694Z,12.00
2023-04-08T14:59:36.455Z,10.95
2023-04-08T15:02:09.507Z,11.00
2023-04-08T15:04:42.317Z,11.77
2023-04-08T15:07:16.828Z,11.05
2023-04-08T15:09:49.549Z,10.48
2023-04-08T15:12:23.183Z,10.68
2023-04-08T15:14:56.103Z,10.93
2023-04-08T15:20:01.618Z,10.27
2023-04-08T15:25:09.608Z,9.93
2023-04-08T15:27:43.039Z,10.95
2023-04-08T15:30:17.304Z,11.57
2023-04-08T15:32:50.254Z,11.13
2023-04-08T15:35:23.357Z,10.90
2023-04-08T15:37:57.596Z,10.00
2023-04-08T15:40:34.244Z,9.70
2023-04-08T15:43:10.131Z,10.57
2023-04-08T15:45:46.601Z,8.98
2023-04-08T15:48:19.694Z,7.68
2023-04-08T15:50:52.647Z,7.90
2023-04-08T15:53:26.957Z,9.43
2023-04-08T15:55:59.845Z,7.85
2023-04-08T16:01:05.706Z,7.65
2023-04-08T16:03:38.934Z,8.57
2023-04-08T16:06:11.899Z,8.20
2023-04-08T16:08:47.181Z,9.10
2023-04-08T16:11:20.075Z,7.68
2023-04-08T16:13:53.059Z,9.00
2023-04-08T16:16:26.620Z,10.07
2023-04-08T16:19:00.221Z,10.35
2023-04-08T16:21:32.978Z,12.75
2023-04-08T16:24:07.441Z,9.15
2023-04-08T16:26:40.885Z,11.32
2023-04-08T16:29:13.817Z,9.70
2023-04-08T16:31:46.678Z,11.10
2023-04-08T16:36:55.558Z,10.05
2023-04-08T16:39:29.825Z,10.43
2023-04-08T16:42:02.554Z,13.18
2023-04-08T16:44:35.615Z,12.82
2023-04-08T16:47:08.400Z,12.10
2023-04-08T16:49:41.242Z,11.77
2023-04-08T16:52:13.937Z,10.43
2023-04-08T16:54:48.179Z,10.70
2023-04-08T16:57:21.196Z,10.80
2023-04-08T16:59:54.188Z,10.63
2023-04-08T17:05:00.624Z,8.73
2023-04-08T17:07:33.970Z,8.07
2023-04-08T17:10:09.679Z,9.43
2023-04-08T17:12:42.763Z,8.55
2023-04-08T17:15:15.822Z,10.23
2023-04-08T17:17:48.660Z,9.60
2023-04-08T17:20:22.093Z,9.30
2023-04-08T17:22:54.841Z,8.75
2023-04-08T17:25:29.226Z,9.98
2023-04-08T17:28:02.748Z,10.70
2023-04-08T17:30:35.665Z,8.98
2023-04-08T17:35:41.412Z,9.53
2023-04-08T17:38:14.464Z,10.02
2023-04-08T17:40:48.724Z,9.93
2023-04-08T17:43:21.595Z,11.15
2023-04-08T17:45:54.379Z,10.23
2023-04-08T17:48:27.680Z,9.73
2023-04-08T17:51:01.771Z,10.35
2023-04-08T17:53:35.428Z,9.63
2023-04-08T17:56:10.002Z,8.30
2023-04-08T17:58:42.849Z,10.65
2023-04-08T18:01:15.706Z,8.90
2023-04-08T18:03:49.837Z,8.85
2023-04-08T18:06:22.859Z,9.18
2023-04-08T18:08:55.621Z,9.43
2023-04-08T18:11:30.146Z,8.95
2023-04-08T18:14:02.862Z,8.68
2023-04-08T18:16:35.620Z,9.18
2023-04-08T18:19:08.630Z,8.30
2023-04-08T18:24:14.159Z,8.52
2023-04-08T18:26:54.452Z,9.25
2023-04-08T18:29:34.622Z,9.05
2023-04-08T18:34:40.392Z,7.57
2023-04-08T18:39:46.028Z,7.05
2023-04-08T18:42:20.353Z,7.28
2023-04-08T18:44:53.054Z,9.32
2023-04-08T18:47:25.922Z,8.60
2023-04-08T18:49:58.622Z,9.00
2023-04-08T18:52:32.422Z,9.23
2023-04-08T18:55:05.538Z,8.25
2023-04-08T18:57:39.762Z,7.15
2023-04-08T19:00:13.092Z,8.30
2023-04-08T19:02:46.204Z,7.25
2023-04-08T19:05:19.326Z,6.00
2023-04-08T19:07:53.094Z,7.85
2023-04-08T19:10:26.040Z,8.43
2023-04-08T19:15:32.786Z,9.77
2023-04-08T19:18:05.766Z,7.70
2023-04-08T19:20:39.324Z,10.05
2023-04-08T19:23:12.033Z,9.60
2023-04-08T19:25:44.929Z,8.70
2023-04-08T19:30:51.619Z,8.93
2023-04-08T19:35:57.777Z,9.38
2023-04-08T19:38:30.899Z,10.80
2023-04-08T19:41:03.741Z,8.85
2023-04-08T19:43:37.929Z,9.63
2023-04-08T19:46:10.753Z,8.27
2023-04-08T19:48:44.327Z,8.80
2023-04-08T19:51:20.255Z,9.68
2023-04-08T19:53:53.298Z,9.63
2023-04-08T19:56:26.611Z,10.10
2023-04-08T19:59:01.366Z,8.65
2023-04-08T20:01:35.863Z,10.48
2023-04-08T20:04:09.177Z,8.38
2023-04-08T20:06:42.225Z,7.22
2023-04-08T20:11:47.512Z,7.80
2023-04-08T20:14:21.788Z,7.57
2023-04-08T20:16:54.448Z,6.70
2023-04-08T20:19:27.302Z,8.13
2023-04-08T20:24:38.346Z,7.63
2023-04-08T20:27:11.139Z,9.90
2023-04-08T20:29:45.576Z,9.10
2023-04-08T20:32:18.334Z,8.50
2023-04-08T20:34:51.582Z,7.03
2023-04-08T20:37:24.237Z,7.32
2023-04-08T20:39:57.550Z,9.05
2023-04-08T20:42:30.603Z,10.52
2023-04-08T20:45:05.067Z,9.38
2023-04-08T20:47:37.888Z,9.15
2023-04-08T20:50:11.626Z,9.27
2023-04-08T20:52:44.418Z,10.75
2023-04-08T20:55:17.666Z,8.20
2023-04-08T20:57:50.426Z,8.65
2023-04-08T21:00:24.563Z,8.52
2023-04-08T21:02:57.753Z,8.20
2023-04-08T21:05:30.529Z,8.50
2023-04-08T21:08:03.256Z,10.02
2023-04-08T21:10:36.059Z,8.52
2023-04-08T21:13:08.877Z,8.65
2023-04-08T21:15:43.140Z,9.00
2023-04-08T21:18:15.914Z,9.68
2023-04-08T21:20:49.886Z,9.65
2023-04-08T21:23:22.627Z,8.63
2023-04-08T21:25:56.384Z,11.25
2023-04-08T21:28:29.173Z,9.88
2023-04-08T21:31:10.023Z,10.32
2023-04-08T21:33:42.746Z,10.13
2023-04-08T21:36:15.530Z,10.45
2023-04-08T21:38:48.210Z,9.80
2023-04-08T21:41:21.762Z,10.15
2023-04-08T21:43:54.675Z,10.45
2023-04-08T21:49:01.935Z,10.07
2023-04-08T21:51:35.267Z,10.35
2023-04-08T21:54:08.152Z,8.68
2023-04-08T21:59:13.648Z,7.57
2023-04-08T22:01:48.242Z,7.97
2023-04-08T22:04:22.356Z,8.02
2023-04-08T22:06:55.232Z,8.73
2023-04-08T22:09:27.918Z,8.88
2023-04-08T22:12:01.581Z,7.93
2023-04-08T22:14:34.322Z,9.65
2023-04-08T22:17:08.548Z,9.32
2023-04-08T22:19:41.518Z,8.60
2023-04-08T22:24:46.831Z,7.93
2023-04-08T22:27:19.891Z,7.85
2023-04-08T22:29:52.582Z,9.00
2023-04-08T22:32:26.668Z,8.38
2023-04-08T22:34:59.430Z,8.73
2023-04-08T22:37:32.727Z,9.75
2023-04-08T22:40:06.633Z,8.20
2023-04-08T22:42:39.711Z,8.63
2023-04-08T22:45:12.350Z,8.60
2023-04-08T22:47:46.439Z,9.63
2023-04-08T22:50:19.232Z,8.98
2023-04-08T22:52:52.192Z,8.90
2023-04-08T22:55:24.866Z,8.95
2023-04-08T22:57:57.601Z,9.98
2023-04-08T23:00:30.535Z,7.65
2023-04-08T23:05:37.724Z,10.18
2023-04-08T23:08:10.488Z,10.70
2023-04-08T23:10:43.159Z,8.55
2023-04-08T23:13:15.983Z,9.82
2023-04-08T23:15:48.793Z,10.80
2023-04-08T23:18:22.932Z,9.77
2023-04-08T23:20:57.143Z,9.68
2023-04-08T23:23:29.915Z,10.07
2023-04-08T23:26:02.598Z,10.98
2023-04-08T23:28:35.382Z,11.10
2023-04-08T23:31:08.084Z,11.82
2023-04-08T23:33:42.199Z,11.25
2023-04-08T23:36:14.990Z,11.52
2023-04-08T23:38:47.754Z,12.85
2023-04-08T23:41:20.569Z,11.35
2023-04-08T23:43:53.563Z,11.70
2023-04-08T23:49:00.440Z,12.13
2023-04-08T23:51:33.142Z,13.18
2023-04-08T23:54:06.616Z,12.02
2023-04-08T23:56:41.586Z,11.82
2023-04-08T23:59:14.489Z,11.45
